createdAt,value
2019-03-20T00:01:23.148Z,67.00
2019-03-20T00:03:50.890Z,67.10
2019-03-20T00:06:18.669Z,67.00
2019-03-20T00:08:46.544Z,67.30
2019-03-20T00:11:14.293Z,67.50
2019-03-20T00:13:42.172Z,67.50
2019-03-20T00:16:10.042Z,67.30
2019-03-20T00:18:37.885Z,67.00
2019-03-20T00:21:05.773Z,66.90
2019-03-20T00:23:33.448Z,67.10
2019-03-20T00:26:01.128Z,67.00
2019-03-20T00:28:28.990Z,67.50
2019-03-20T00:30:56.778Z,67.40
2019-03-20T00:33:24.510Z,67.60
2019-03-20T00:35:52.412Z,68.40
2019-03-20T00:38:20.181Z,68.30
2019-03-20T00:40:48.017Z,68.30
2019-03-20T00:43:15.693Z,68.50
2019-03-20T00:45:43.341Z,69.00
2019-03-20T00:48:11.106Z,69.00
2019-03-20T00:50:38.856Z,69.20
2019-03-20T00:53:06.525Z,69.30
2019-03-20T00:55:34.189Z,69.50
2019-03-20T00:58:01.980Z,69.50
2019-03-20T01:00:29.919Z,69.40
2019-03-20T01:02:57.740Z,69.60
2019-03-20T01:05:25.676Z,69.80
2019-03-20T01:07:53.466Z,70.00
2019-03-20T01:10:21.325Z,70.20
2019-03-20T01:12:49.996Z,70.80
2019-03-20T01:15:17.882Z,70.70
2019-03-20T01:17:45.948Z,70.50
2019-03-20T01:20:15.579Z,70.60
2019-03-20T01:22:45.141Z,70.80
2019-03-20T01:25:13.725Z,70.80
2019-03-20T01:27:42.874Z,70.90
2019-03-20T01:30:29.876Z,71.40
2019-03-20T01:33:00.741Z,71.40
2019-03-20T01:35:30.233Z,71.40
2019-03-20T01:37:57.999Z,72.00
2019-03-20T01:40:25.776Z,72.50
2019-03-20T01:42:53.609Z,72.70
2019-03-20T01:45:21.165Z,72.90
2019-03-20T01:47:48.902Z,72.50
2019-03-20T01:50:16.672Z,72.10
2019-03-20T01:52:44.517Z,72.30
2019-03-20T01:55:12.698Z,72.30
2019-03-20T01:57:40.636Z,72.40
2019-03-20T02:00:08.454Z,73.20
2019-03-20T02:02:36.882Z,72.80
2019-03-20T02:05:04.607Z,72.20
2019-03-20T02:07:33.165Z,72.00
2019-03-20T02:10:00.944Z,72.00
2019-03-20T02:12:29.713Z,71.90
2019-03-20T02:14:57.384Z,71.80
2019-03-20T02:17:25.112Z,71.70
2019-03-20T02:19:52.769Z,72.50
2019-03-20T02:22:20.629Z,72.80
2019-03-20T02:24:48.189Z,73.40
2019-03-20T02:27:15.825Z,72.90
2019-03-20T02:29:43.394Z,72.90
2019-03-20T02:32:11.135Z,72.60
2019-03-20T02:34:42.345Z,72.50
2019-03-20T02:37:10.016Z,72.80
2019-03-20T02:39:37.862Z,72.80
2019-03-20T02:42:05.548Z,72.80
2019-03-20T02:44:33.387Z,72.60
2019-03-20T02:47:01.050Z,72.70
2019-03-20T02:49:28.841Z,73.00
2019-03-20T02:51:56.421Z,73.80
2019-03-20T02:54:24.261Z,74.20
2019-03-20T02:56:52.031Z,74.90
2019-03-20T02:59:19.779Z,74.00
2019-03-20T03:01:47.571Z,73.90
2019-03-20T03:04:15.334Z,73.70
2019-03-20T03:06:43.013Z,73.70
2019-03-20T03:09:10.875Z,73.80
2019-03-20T03:11:38.739Z,74.00
2019-03-20T03:14:06.484Z,73.90
2019-03-20T03:16:34.243Z,74.20
2019-03-20T03:19:01.936Z,74.30
2019-03-20T03:21:29.874Z,74.20
2019-03-20T03:23:57.457Z,74.10
2019-03-20T03:26:25.043Z,74.10
2019-03-20T03:28:52.692Z,74.50
2019-03-20T03:31:20.416Z,74.70
2019-03-20T03:33:48.266Z,74.70
2019-03-20T03:36:21.520Z,74.60
2019-03-20T03:38:45.662Z,74.70
2019-03-20T03:41:13.435Z,75.50
2019-03-20T03:43:41.203Z,75.10
2019-03-20T03:46:08.834Z,76.10
2019-03-20T03:48:36.583Z,76.90
2019-03-20T03:51:04.705Z,76.10
2019-03-20T03:53:32.476Z,76.70
2019-03-20T03:56:00.331Z,76.60
2019-03-20T03:58:27.991Z,75.90
2019-03-20T04:00:55.714Z,75.80
2019-03-20T04:03:23.590Z,76.00
2019-03-20T04:05:51.370Z,75.90
2019-03-20T04:08:19.031Z,75.80
2019-03-20T04:10:46.707Z,75.60
2019-03-20T04:13:14.460Z,75.50
2019-03-20T04:15:42.337Z,75.50
2019-03-20T04:18:10.074Z,75.70
2019-03-20T04:20:37.969Z,75.50
2019-03-20T04:23:05.699Z,75.20
2019-03-20T04:25:33.374Z,75.10
2019-03-20T04:28:01.132Z,75.10
2019-03-20T04:30:28.709Z,75.90
2019-03-20T04:32:56.502Z,76.00
2019-03-20T04:35:24.269Z,75.90
2019-03-20T04:38:11.471Z,75.80
2019-03-20T04:40:39.214Z,76.60
2019-03-20T04:43:06.959Z,77.50
2019-03-20T04:45:34.624Z,78.50
2019-03-20T04:48:02.367Z,78.10
2019-03-20T04:50:30.154Z,77.90
2019-03-20T04:52:57.922Z,78.40
2019-03-20T04:55:25.667Z,78.30
2019-03-20T04:57:53.404Z,78.20
2019-03-20T05:00:20.991Z,77.90
2019-03-20T05:02:49.383Z,77.60
2019-03-20T05:05:17.107Z,77.60
2019-03-20T05:07:44.908Z,77.80
2019-03-20T05:10:12.638Z,78.70
2019-03-20T05:12:41.401Z,78.50
2019-03-20T05:15:09.578Z,78.10
2019-03-20T05:17:38.441Z,78.10
2019-03-20T05:20:07.785Z,78.60
2019-03-20T05:22:37.061Z,80.00
2019-03-20T05:25:05.215Z,80.40
2019-03-20T05:27:33.606Z,79.50
2019-03-20T05:30:01.550Z,79.10
2019-03-20T05:32:30.906Z,78.60
2019-03-20T05:34:58.726Z,79.10
2019-03-20T05:37:26.545Z,79.50
2019-03-20T05:39:54.303Z,79.10
2019-03-20T05:42:21.973Z,78.70
2019-03-20T05:44:49.720Z,78.40
2019-03-20T05:47:17.487Z,78.60
2019-03-20T05:49:45.219Z,78.60
2019-03-20T05:52:12.982Z,78.30
2019-03-20T05:54:40.676Z,78.20
2019-03-20T05:57:08.449Z,78.10
2019-03-20T05:59:36.145Z,78.10
2019-03-20T06:02:03.777Z,78.10
2019-03-20T06:04:31.544Z,78.10
2019-03-20T06:06:59.416Z,78.50
2019-03-20T06:09:27.258Z,78.80
2019-03-20T06:11:55.013Z,79.50
2019-03-20T06:14:23.027Z,80.10
2019-03-20T06:16:50.801Z,80.00
2019-03-20T06:19:18.465Z,79.80
2019-03-20T06:21:46.262Z,80.00
2019-03-20T06:24:13.942Z,80.80
2019-03-20T06:26:41.686Z,81.40
2019-03-20T06:29:09.470Z,83.40
2019-03-20T06:31:37.363Z,83.80
2019-03-20T06:34:05.202Z,84.70
2019-03-20T06:36:33.081Z,85.20
2019-03-20T06:39:00.948Z,85.80
2019-03-20T06:41:28.645Z,86.70
2019-03-20T06:43:56.353Z,87.40
2019-03-20T06:46:24.073Z,86.50
2019-03-20T06:48:52.129Z,86.40
2019-03-20T06:51:19.920Z,86.00
2019-03-20T06:53:47.750Z,86.00
2019-03-20T06:56:15.430Z,86.30
2019-03-20T06:58:43.288Z,85.30
2019-03-20T07:01:28.620Z,85.60
2019-03-20T07:04:09.138Z,85.20
2019-03-20T07:07:43.244Z,85.10
2019-03-20T07:10:38.989Z,86.40
2019-03-20T07:13:08.331Z,86.80
2019-03-20T07:15:36.052Z,87.00
2019-03-20T07:18:03.839Z,88.00
2019-03-20T07:20:31.539Z,88.50
2019-03-20T07:22:59.217Z,87.60
2019-03-20T07:25:27.034Z,87.30
2019-03-20T07:27:54.787Z,86.90
2019-03-20T07:30:22.462Z,87.70
2019-03-20T07:32:50.209Z,87.10
2019-03-20T07:35:18.001Z,87.30
2019-03-20T07:37:55.596Z,87.50
2019-03-20T07:40:15.278Z,86.90
2019-03-20T07:42:43.056Z,87.40
2019-03-20T07:45:10.867Z,87.30
2019-03-20T07:47:38.669Z,87.40
2019-03-20T07:50:06.820Z,87.10
2019-03-20T07:52:34.697Z,86.90
2019-03-20T07:55:02.641Z,86.60
2019-03-20T07:57:30.542Z,87.30
2019-03-20T07:59:58.425Z,86.50
2019-03-20T08:02:26.150Z,85.60
2019-03-20T08:04:53.977Z,85.90
2019-03-20T08:07:21.867Z,85.80
2019-03-20T08:09:49.657Z,85.70
2019-03-20T08:12:17.405Z,85.00
2019-03-20T08:14:45.328Z,85.00
2019-03-20T08:17:13.173Z,85.30
2019-03-20T08:19:40.852Z,85.40
2019-03-20T08:22:08.729Z,84.30
2019-03-20T08:24:36.353Z,83.80
2019-03-20T08:27:04.095Z,83.70
2019-03-20T08:29:31.775Z,83.40
2019-03-20T08:31:59.555Z,82.50
2019-03-20T08:34:27.261Z,82.30
2019-03-20T08:36:55.190Z,82.00
2019-03-20T08:39:22.876Z,81.50
2019-03-20T08:41:50.670Z,83.10
2019-03-20T08:44:18.257Z,81.80
2019-03-20T08:46:46.026Z,81.10
2019-03-20T08:49:13.840Z,80.30
2019-03-20T08:51:41.687Z,79.80
2019-03-20T08:54:09.447Z,78.30
2019-03-20T08:56:37.235Z,76.20
2019-03-20T08:59:04.982Z,73.90
2019-03-20T09:01:32.660Z,75.50
2019-03-20T09:04:00.405Z,73.40
2019-03-20T09:06:28.101Z,74.60
2019-03-20T09:08:55.883Z,73.60
2019-03-20T09:11:23.647Z,73.00
2019-03-20T09:13:51.425Z,74.60
2019-03-20T09:16:19.153Z,70.80
2019-03-20T09:18:46.911Z,69.30
2019-03-20T09:21:14.767Z,68.30
2019-03-20T09:23:42.853Z,64.80
2019-03-20T09:26:10.630Z,64.40
2019-03-20T09:28:38.316Z,62.10
2019-03-20T09:31:06.049Z,59.50
2019-03-20T09:33:33.897Z,57.30
2019-03-20T09:36:01.582Z,58.00
2019-03-20T09:38:29.486Z,56.20
2019-03-20T09:40:57.279Z,56.10
2019-03-20T09:43:25.108Z,56.20
2019-03-20T09:45:52.669Z,54.60
2019-03-20T09:48:20.567Z,54.80
2019-03-20T09:50:48.317Z,54.10
2019-03-20T09:53:16.255Z,54.40
2019-03-20T09:55:44.047Z,53.70
2019-03-20T09:58:12.141Z,54.40
2019-03-20T10:00:40.004Z,55.80
2019-03-20T10:03:07.787Z,56.10
2019-03-20T10:05:35.539Z,57.00
2019-03-20T10:08:03.548Z,57.10
2019-03-20T10:10:31.346Z,56.80
2019-03-20T10:12:59.333Z,54.80
2019-03-20T10:15:27.191Z,50.70
2019-03-20T10:17:56.280Z,54.60
2019-03-20T10:20:24.133Z,53.00
2019-03-20T10:22:52.010Z,54.40
2019-03-20T10:25:19.883Z,57.00
2019-03-20T10:27:47.562Z,56.00
2019-03-20T10:30:19.389Z,56.90
2019-03-20T10:32:48.678Z,55.80
2019-03-20T10:35:16.860Z,55.90
2019-03-20T10:37:45.041Z,56.60
2019-03-20T10:40:14.795Z,56.70
2019-03-20T10:42:44.070Z,55.10
2019-03-20T10:45:12.186Z,54.50
2019-03-20T10:47:41.133Z,55.50
2019-03-20T10:50:11.304Z,56.60
2019-03-20T10:52:40.762Z,55.40
2019-03-20T10:55:08.562Z,55.90
2019-03-20T10:57:36.917Z,54.00
2019-03-20T11:00:06.222Z,52.90
2019-03-20T11:02:35.573Z,54.20
2019-03-20T11:05:04.310Z,53.40
2019-03-20T11:07:33.459Z,52.80
2019-03-20T11:10:01.219Z,51.50
2019-03-20T11:12:30.558Z,50.80
2019-03-20T11:14:58.329Z,51.50
2019-03-20T11:17:26.174Z,52.60
2019-03-20T11:19:56.190Z,51.90
2019-03-20T11:22:23.642Z,49.30
2019-03-20T11:24:51.343Z,51.70
2019-03-20T11:27:19.103Z,51.30
2019-03-20T11:29:46.796Z,51.90
2019-03-20T11:32:14.774Z,51.90
2019-03-20T11:34:42.616Z,51.20
2019-03-20T11:37:10.333Z,50.10
2019-03-20T11:39:38.124Z,49.40
2019-03-20T11:42:05.820Z,48.60
2019-03-20T11:44:33.603Z,49.80
2019-03-20T11:47:01.395Z,48.40
2019-03-20T11:49:29.198Z,46.20
2019-03-20T11:51:56.894Z,46.70
2019-03-20T11:54:24.650Z,48.20
2019-03-20T11:56:52.315Z,47.70
2019-03-20T11:59:20.110Z,48.40
2019-03-20T12:01:47.799Z,47.60
2019-03-20T12:04:15.562Z,46.50
2019-03-20T12:06:43.453Z,47.70
2019-03-20T12:09:11.221Z,45.20
2019-03-20T12:11:45.885Z,45.00
2019-03-20T12:14:08.681Z,44.70
2019-03-20T12:16:36.494Z,44.50
2019-03-20T12:19:04.256Z,46.20
2019-03-20T12:21:31.937Z,44.90
2019-03-20T12:23:59.662Z,45.10
2019-03-20T12:26:27.734Z,43.80
2019-03-20T12:28:55.624Z,45.40
2019-03-20T12:31:23.314Z,44.60
2019-03-20T12:33:51.162Z,45.30
2019-03-20T12:36:18.793Z,44.20
2019-03-20T12:38:46.796Z,44.30
2019-03-20T12:41:14.483Z,44.70
2019-03-20T12:43:42.235Z,44.30
2019-03-20T12:46:10.003Z,44.00
2019-03-20T12:48:37.866Z,42.80
2019-03-20T12:51:05.745Z,41.90
2019-03-20T12:53:33.567Z,44.80
2019-03-20T12:56:01.466Z,43.70
2019-03-20T12:58:29.281Z,43.90
2019-03-20T13:00:57.123Z,41.20
2019-03-20T13:03:24.923Z,42.00
2019-03-20T13:05:52.797Z,43.30
2019-03-20T13:08:20.513Z,43.30
2019-03-20T13:10:48.345Z,42.70
2019-03-20T13:13:16.167Z,41.30
2019-03-20T13:15:44.109Z,42.60
2019-03-20T13:18:11.904Z,42.70
2019-03-20T13:20:39.887Z,42.90
2019-03-20T13:23:09.491Z,45.10
2019-03-20T13:25:38.920Z,43.10
2019-03-20T13:28:06.723Z,42.90
2019-03-20T13:30:48.996Z,40.00
2019-03-20T13:33:25.578Z,40.10
2019-03-20T13:35:48.321Z,41.10
2019-03-20T13:38:16.142Z,41.20
2019-03-20T13:40:43.895Z,42.20
2019-03-20T13:43:11.753Z,39.20
2019-03-20T13:45:39.451Z,42.00
2019-03-20T13:48:07.228Z,40.80
2019-03-20T13:50:34.997Z,39.80
2019-03-20T13:53:02.874Z,41.50
2019-03-20T13:55:30.903Z,40.80
2019-03-20T13:57:58.849Z,40.60
2019-03-20T14:00:26.983Z,40.90
2019-03-20T14:02:54.846Z,41.20
2019-03-20T14:05:22.736Z,40.60
2019-03-20T14:07:50.791Z,42.00
2019-03-20T14:10:25.393Z,42.90
2019-03-20T14:12:53.903Z,42.50
2019-03-20T14:15:21.689Z,44.00
2019-03-20T14:17:49.584Z,43.50
2019-03-20T14:20:19.532Z,42.20
2019-03-20T14:22:48.890Z,43.50
2019-03-20T14:25:16.679Z,40.90
2019-03-20T14:27:44.660Z,42.60
2019-03-20T14:30:18.317Z,41.70
2019-03-20T14:32:47.845Z,41.10
2019-03-20T14:35:15.706Z,42.60
2019-03-20T14:37:43.526Z,40.70
2019-03-20T14:40:12.066Z,40.60
2019-03-20T14:42:41.550Z,40.50
2019-03-20T14:45:11.145Z,40.50
2019-03-20T14:47:42.237Z,40.70
2019-03-20T14:50:13.027Z,41.00
2019-03-20T14:52:42.393Z,41.40
2019-03-20T14:55:10.435Z,41.40
2019-03-20T14:57:39.519Z,42.50
2019-03-20T15:00:19.543Z,42.90
2019-03-20T15:02:48.852Z,40.90
2019-03-20T15:05:16.843Z,40.30
2019-03-20T15:07:44.556Z,42.20
2019-03-20T15:10:14.650Z,42.90
2019-03-20T15:12:44.083Z,43.60
2019-03-20T15:15:18.655Z,44.00
2019-03-20T15:17:48.184Z,41.40
2019-03-20T15:20:16.042Z,42.80
2019-03-20T15:22:43.734Z,41.90
2019-03-20T15:25:11.682Z,41.40
2019-03-20T15:27:39.790Z,41.90
2019-03-20T15:30:10.311Z,43.10
2019-03-20T15:32:39.774Z,41.40
2019-03-20T15:35:11.020Z,42.00
2019-03-20T15:37:39.816Z,42.80
2019-03-20T15:40:10.437Z,40.90
2019-03-20T15:42:42.951Z,41.10
2019-03-20T15:45:11.734Z,43.20
2019-03-20T15:47:41.215Z,43.10
2019-03-20T15:50:10.688Z,44.00
2019-03-20T15:52:40.182Z,43.70
2019-03-20T15:55:10.742Z,44.40
2019-03-20T15:57:40.305Z,44.10
2019-03-20T16:00:11.738Z,43.50
2019-03-20T16:02:41.116Z,41.90
2019-03-20T16:05:08.790Z,43.70
2019-03-20T16:07:36.669Z,43.50
2019-03-20T16:10:06.392Z,43.30
2019-03-20T16:12:35.811Z,42.50
2019-03-20T16:15:04.485Z,43.30
2019-03-20T16:17:33.953Z,43.50
2019-03-20T16:20:01.665Z,43.50
2019-03-20T16:22:31.030Z,44.50
2019-03-20T16:24:58.860Z,43.40
2019-03-20T16:27:26.676Z,44.10
2019-03-20T16:29:54.491Z,44.00
2019-03-20T16:32:22.219Z,43.70
2019-03-20T16:34:50.108Z,44.10
2019-03-20T16:37:17.962Z,43.80
2019-03-20T16:39:48.578Z,43.10
2019-03-20T16:42:16.767Z,43.40
2019-03-20T16:44:44.681Z,43.30
2019-03-20T16:47:12.495Z,44.40
2019-03-20T16:49:40.373Z,44.50
2019-03-20T16:52:08.203Z,45.90
2019-03-20T16:54:36.012Z,45.80
2019-03-20T16:57:03.777Z,46.00
2019-03-20T16:59:31.654Z,46.90
2019-03-20T17:01:59.435Z,46.40
2019-03-20T17:04:27.349Z,46.90
2019-03-20T17:06:55.078Z,47.20
2019-03-20T17:09:22.966Z,47.70
2019-03-20T17:11:50.872Z,47.20
2019-03-20T17:14:20.297Z,47.70
2019-03-20T17:16:48.365Z,47.90
2019-03-20T17:19:16.206Z,48.50
2019-03-20T17:21:43.995Z,48.30
2019-03-20T17:24:11.826Z,48.30
2019-03-20T17:26:39.698Z,48.10
2019-03-20T17:29:09.236Z,48.80
2019-03-20T17:31:37.249Z,48.60
2019-03-20T17:34:05.058Z,48.80
2019-03-20T17:36:32.996Z,50.00
2019-03-20T17:39:00.771Z,50.00
2019-03-20T17:41:36.459Z,49.90
2019-03-20T17:43:58.377Z,50.10
2019-03-20T17:46:26.231Z,50.50
2019-03-20T17:48:54.004Z,50.60
2019-03-20T17:51:21.878Z,50.50
2019-03-20T17:53:49.699Z,51.60
2019-03-20T17:56:17.562Z,51.70
2019-03-20T17:58:48.883Z,51.70
2019-03-20T18:01:16.762Z,51.90
2019-03-20T18:03:44.578Z,52.00
2019-03-20T18:06:12.395Z,52.20
2019-03-20T18:08:40.295Z,52.30
2019-03-20T18:11:08.187Z,52.40
2019-03-20T18:13:36.134Z,53.00
2019-03-20T18:16:04.041Z,53.30
2019-03-20T18:18:31.818Z,53.40
2019-03-20T18:20:59.742Z,53.30
2019-03-20T18:23:27.632Z,53.60
2019-03-20T18:25:55.800Z,53.60
2019-03-20T18:28:24.977Z,54.30
2019-03-20T18:30:52.766Z,54.20
2019-03-20T18:33:20.791Z,54.10
2019-03-20T18:35:48.688Z,54.20
2019-03-20T18:38:16.507Z,54.10
2019-03-20T18:40:45.929Z,53.80
2019-03-20T18:43:13.828Z,53.60
2019-03-20T18:45:41.583Z,53.80
2019-03-20T18:48:09.361Z,53.70
2019-03-20T18:50:37.225Z,53.70
2019-03-20T18:53:05.017Z,53.60
2019-03-20T18:55:32.938Z,53.70
2019-03-20T18:58:00.863Z,53.50
2019-03-20T19:00:28.890Z,53.90
2019-03-20T19:02:58.360Z,53.90
2019-03-20T19:05:31.239Z,53.30
2019-03-20T19:08:00.580Z,52.80
2019-03-20T19:10:28.579Z,52.80
2019-03-20T19:12:56.425Z,52.60
2019-03-20T19:15:24.547Z,52.90
2019-03-20T19:17:52.345Z,53.30
2019-03-20T19:20:20.157Z,53.60
2019-03-20T19:22:48.094Z,53.70
2019-03-20T19:25:15.938Z,53.80
2019-03-20T19:27:43.888Z,54.10
2019-03-20T19:30:14.902Z,54.10
2019-03-20T19:32:44.217Z,54.10
2019-03-20T19:35:12.132Z,54.20
2019-03-20T19:37:39.957Z,54.00
2019-03-20T19:40:07.924Z,54.30
2019-03-20T19:42:37.238Z,53.70
2019-03-20T19:45:05.882Z,53.90
2019-03-20T19:47:35.205Z,53.60
2019-03-20T19:50:04.276Z,54.00
2019-03-20T19:52:33.616Z,53.40
2019-03-20T19:55:01.552Z,53.90
2019-03-20T19:57:30.879Z,53.20
2019-03-20T19:59:58.604Z,53.20
2019-03-20T20:02:26.418Z,53.20
2019-03-20T20:04:54.174Z,53.20
2019-03-20T20:07:21.993Z,53.20
2019-03-20T20:09:49.713Z,53.30
2019-03-20T20:12:19.103Z,53.40
2019-03-20T20:14:47.218Z,53.20
2019-03-20T20:17:15.004Z,53.40
2019-03-20T20:19:42.755Z,53.50
2019-03-20T20:22:10.678Z,53.30
2019-03-20T20:24:38.395Z,53.30
2019-03-20T20:27:06.182Z,53.20
2019-03-20T20:29:33.896Z,53.40
2019-03-20T20:32:01.691Z,53.40
2019-03-20T20:34:29.540Z,53.20
2019-03-20T20:36:57.491Z,53.50
2019-03-20T20:39:25.320Z,53.60
2019-03-20T20:41:53.113Z,53.70
2019-03-20T20:44:20.724Z,53.70
2019-03-20T20:46:48.555Z,53.70
2019-03-20T20:49:16.351Z,53.60
2019-03-20T20:51:44.081Z,53.80
2019-03-20T20:54:11.862Z,53.70
2019-03-20T20:56:39.613Z,53.80
2019-03-20T20:59:07.338Z,54.00
2019-03-20T21:01:35.154Z,54.20
2019-03-20T21:04:02.986Z,54.30
2019-03-20T21:06:30.833Z,54.30
2019-03-20T21:08:58.711Z,54.60
2019-03-20T21:11:26.435Z,54.80
2019-03-20T21:13:54.274Z,54.90
2019-03-20T21:16:22.511Z,54.70
2019-03-20T21:19:24.126Z,54.70
2019-03-20T21:22:41.639Z,55.40
2019-03-20T21:25:12.280Z,55.50
2019-03-20T21:28:26.407Z,55.30
2019-03-20T21:34:52.197Z,55.40
2019-03-20T21:38:07.379Z,55.30
2019-03-20T21:40:43.013Z,55.60
2019-03-20T21:43:54.185Z,55.50
2019-03-20T21:46:57.313Z,55.50
2019-03-20T21:49:27.281Z,55.40
2019-03-20T21:51:55.507Z,55.40
2019-03-20T21:55:00.854Z,55.60
2019-03-20T21:58:11.190Z,55.60
2019-03-20T22:01:40.718Z,56.00
2019-03-20T22:04:10.558Z,56.60
2019-03-20T22:07:06.806Z,56.90
2019-03-20T22:10:13.270Z,57.10
2019-03-20T22:13:18.846Z,56.80
2019-03-20T22:16:19.110Z,56.80
2019-03-20T22:19:25.136Z,56.60
2019-03-20T22:22:27.419Z,56.90
2019-03-20T22:25:50.809Z,56.80
2019-03-20T22:29:07.657Z,56.70
2019-03-20T22:31:40.389Z,56.90
2019-03-20T22:35:10.649Z,56.90
2019-03-20T22:37:40.565Z,57.00
2019-03-20T22:40:45.864Z,57.40
2019-03-20T22:43:30.178Z,57.50
2019-03-20T22:46:45.123Z,57.50
2019-03-20T22:49:57.519Z,57.50
2019-03-20T22:52:59.835Z,57.90
2019-03-20T22:55:54.445Z,58.00
2019-03-20T22:58:41.896Z,58.00
2019-03-20T23:01:35.334Z,58.10
2019-03-20T23:04:16.238Z,58.30
2019-03-20T23:06:46.142Z,58.50
2019-03-20T23:09:14.394Z,58.60
2019-03-20T23:11:42.810Z,58.70
2019-03-20T23:14:11.060Z,58.70
2019-03-20T23:16:39.329Z,58.50
2019-03-20T23:19:07.633Z,58.60
2019-03-20T23:21:35.925Z,58.40
2019-03-20T23:24:04.336Z,58.50
2019-03-20T23:26:32.532Z,58.60
2019-03-20T23:29:00.827Z,58.40
2019-03-20T23:31:29.145Z,58.70
2019-03-20T23:33:57.487Z,59.10
2019-03-20T23:36:26.413Z,59.00
2019-03-20T23:38:54.708Z,58.70
2019-03-20T23:41:25.661Z,59.00
2019-03-20T23:43:54.943Z,59.10
2019-03-20T23:46:23.132Z,59.40
2019-03-20T23:49:01.343Z,59.80
2019-03-20T23:51:31.293Z,60.30
2019-03-20T23:54:01.190Z,60.90
2019-03-20T23:56:31.077Z,60.10
2019-03-20T23:59:01.041Z,60.60
